createdAt,value
2017-09-10T00:01:53.282Z,11.6
2017-09-10T00:19:54.386Z,11.5
2017-09-10T00:36:55.414Z,11.4
2017-09-10T01:22:58.206Z,11.5
2017-09-10T01:27:58.486Z,11.6
2017-09-10T01:45:59.602Z,11.5
2017-09-10T01:54:00.013Z,11.4
2017-09-10T01:57:00.237Z,11.5
2017-09-10T01:58:00.947Z,11.4
2017-09-10T02:13:01.301Z,11.3
2017-09-10T02:17:01.439Z,11.4
2017-09-10T02:18:01.544Z,11.3
2017-09-10T02:21:01.761Z,11.4
2017-09-10T02:22:01.825Z,11.3
2017-09-10T02:28:02.162Z,11.1
2017-09-10T02:35:02.612Z,11
2017-09-10T02:41:02.961Z,10.9
2017-09-10T02:42:03.013Z,11
2017-09-10T02:43:03.129Z,10.9
2017-09-10T02:51:03.576Z,10.8
2017-09-10T02:52:03.631Z,10.9
2017-09-10T02:53:03.664Z,10.8
2017-09-10T02:58:03.988Z,10.9
2017-09-10T03:00:04.034Z,10.8
2017-09-10T03:01:04.151Z,10.9
2017-09-10T03:05:04.340Z,10.8
2017-09-10T03:11:04.707Z,10.6
2017-09-10T03:17:05.129Z,10.5
2017-09-10T03:30:05.863Z,10.4
2017-09-10T03:31:06.007Z,10.5
2017-09-10T03:38:06.334Z,10.6
2017-09-10T03:46:07.013Z,10.8
2017-09-10T04:00:07.681Z,10.9
2017-09-10T04:01:07.837Z,10.8
2017-09-10T04:02:07.848Z,10.9
2017-09-10T04:03:07.860Z,10.8
2017-09-10T04:04:07.941Z,10.9
2017-09-10T04:48:10.630Z,11
2017-09-10T04:52:10.916Z,11.1
2017-09-10T04:56:11.118Z,11.3
2017-09-10T04:58:11.185Z,11.4
2017-09-10T05:01:11.406Z,11.5
2017-09-10T05:03:11.491Z,11.6
2017-09-10T05:07:11.733Z,11.8
2017-09-10T05:11:11.984Z,11.9
2017-09-10T05:14:12.167Z,12
2017-09-10T05:16:12.295Z,12.1
2017-09-10T05:18:12.433Z,12.3
2017-09-10T05:20:12.573Z,12.4
2017-09-10T05:22:12.689Z,12.5
2017-09-10T05:24:12.798Z,12.6
2017-09-10T05:25:12.862Z,12.8
2017-09-10T05:26:12.921Z,12.9
2017-09-10T05:27:12.946Z,13
2017-09-10T05:28:13.032Z,13.3
2017-09-10T05:29:13.083Z,13.4
2017-09-10T05:30:13.168Z,13.5
2017-09-10T05:31:13.237Z,13.6
2017-09-10T05:32:13.249Z,13.8
2017-09-10T05:33:13.344Z,14
2017-09-10T05:35:13.450Z,14.3
2017-09-10T05:36:13.562Z,14.4
2017-09-10T05:37:13.587Z,14.5
2017-09-10T05:38:13.660Z,14.6
2017-09-10T05:39:13.677Z,15
2017-09-10T05:40:13.748Z,15.5
2017-09-10T05:41:13.797Z,15.9
2017-09-10T05:42:13.888Z,16.4
2017-09-10T05:43:13.929Z,16.8
2017-09-10T05:44:13.978Z,17.1
2017-09-10T05:45:14.126Z,17.4
2017-09-10T05:46:14.195Z,17.8
2017-09-10T05:48:14.298Z,17.9
2017-09-10T05:49:14.303Z,18.1
2017-09-10T05:51:14.433Z,18.4
2017-09-10T05:52:14.488Z,18.5
2017-09-10T05:53:14.522Z,18.8
2017-09-10T05:54:14.641Z,18.9
2017-09-10T05:55:14.700Z,19.1
2017-09-10T05:56:14.771Z,19.5
2017-09-10T05:57:14.852Z,20
2017-09-10T05:58:14.817Z,20.8
2017-09-10T05:59:14.881Z,21.3
2017-09-10T06:00:14.945Z,21.6
2017-09-10T06:01:15.059Z,22.1
2017-09-10T06:02:15.135Z,22.5
2017-09-10T06:03:15.198Z,22.8
2017-09-10T06:04:15.219Z,23.1
2017-09-10T06:05:15.313Z,23.4
2017-09-10T06:06:15.330Z,23
2017-09-10T06:07:15.435Z,22.1
2017-09-10T06:08:15.495Z,21.5
2017-09-10T06:10:15.624Z,21.3
2017-09-10T06:11:15.674Z,20.6
2017-09-10T06:12:15.707Z,20
2017-09-10T06:13:15.761Z,19.5
2017-09-10T06:14:15.829Z,19.1
2017-09-10T06:15:15.911Z,18.9
2017-09-10T06:16:15.980Z,18.6
2017-09-10T06:17:15.983Z,18.5
2017-09-10T06:18:16.073Z,18.4
2017-09-10T06:20:16.259Z,18.5
2017-09-10T06:21:16.267Z,18.8
2017-09-10T06:22:16.309Z,19.1
2017-09-10T06:23:16.393Z,19.4
2017-09-10T06:24:16.472Z,19.5
2017-09-10T06:25:16.498Z,19.8
2017-09-10T06:26:16.574Z,20.4
2017-09-10T06:27:16.586Z,20.3
2017-09-10T06:28:16.665Z,20
2017-09-10T06:29:16.762Z,19.8
2017-09-10T06:31:16.849Z,19.6
2017-09-10T06:32:16.969Z,19.4
2017-09-10T06:33:16.963Z,19.1
2017-09-10T06:34:17.081Z,19
2017-09-10T06:35:17.088Z,18.9
2017-09-10T06:36:17.190Z,18.8
2017-09-10T06:38:17.326Z,18.6
2017-09-10T06:39:17.414Z,18.5
2017-09-10T06:40:17.453Z,18.4
2017-09-10T06:42:17.571Z,18.3
2017-09-10T06:44:17.663Z,18.1
2017-09-10T06:49:17.964Z,18.3
2017-09-10T06:50:18.097Z,18.5
2017-09-10T06:51:18.163Z,18.8
2017-09-10T06:53:18.251Z,19.3
2017-09-10T06:54:18.283Z,19.4
2017-09-10T06:55:18.337Z,19.5
2017-09-10T06:57:18.523Z,19.6
2017-09-10T06:58:18.556Z,19.9
2017-09-10T06:59:18.591Z,20.1
2017-09-10T07:00:18.709Z,20.5
2017-09-10T07:01:18.774Z,20.6
2017-09-10T07:02:18.814Z,21
2017-09-10T07:03:18.889Z,21.4
2017-09-10T07:04:18.952Z,22.4
2017-09-10T07:05:18.992Z,23.4
2017-09-10T07:06:19.057Z,24.4
2017-09-10T07:07:19.147Z,25.1
2017-09-10T07:08:19.184Z,25.4
2017-09-10T07:09:19.245Z,24.9
2017-09-10T07:10:19.366Z,24.1
2017-09-10T07:11:19.407Z,23.5
2017-09-10T07:12:19.414Z,23.6
2017-09-10T07:13:19.503Z,24.4
2017-09-10T07:14:19.557Z,24.6
2017-09-10T07:15:19.600Z,25.1
2017-09-10T07:16:19.696Z,25.5
2017-09-10T07:17:19.701Z,26
2017-09-10T07:18:19.784Z,26.4
2017-09-10T07:19:19.874Z,25.8
2017-09-10T07:20:19.891Z,25
2017-09-10T07:21:19.992Z,24.6
2017-09-10T07:23:20.107Z,24.3
2017-09-10T07:24:20.123Z,23.9
2017-09-10T07:25:20.274Z,23.5
2017-09-10T07:26:20.377Z,23.3
2017-09-10T07:27:20.311Z,23
2017-09-10T07:28:20.406Z,22.8
2017-09-10T07:30:20.561Z,22.9
2017-09-10T07:31:20.658Z,23
2017-09-10T07:32:20.689Z,23.1
2017-09-10T07:34:20.815Z,23.4
2017-09-10T07:35:20.910Z,23.3
2017-09-10T07:36:20.860Z,23.1
2017-09-10T07:37:20.989Z,23
2017-09-10T07:40:21.177Z,22.9
2017-09-10T07:41:21.262Z,23.3
2017-09-10T07:42:21.248Z,23.9
2017-09-10T07:43:21.325Z,24.1
2017-09-10T07:44:21.435Z,23.6
2017-09-10T07:45:21.491Z,23.1
2017-09-10T07:46:21.528Z,22.9
2017-09-10T07:47:21.613Z,22.6
2017-09-10T07:50:21.824Z,22.5
2017-09-10T07:51:21.862Z,22.8
2017-09-10T07:53:21.991Z,23
2017-09-10T07:54:22.035Z,24.4
2017-09-10T07:55:22.105Z,25.5
2017-09-10T07:56:22.165Z,26.1
2017-09-10T07:57:22.171Z,27
2017-09-10T07:58:22.253Z,28
2017-09-10T07:59:22.356Z,28.9
2017-09-10T08:00:22.384Z,29
2017-09-10T08:01:22.476Z,27.9
2017-09-10T08:02:22.549Z,28
2017-09-10T08:03:22.646Z,29.4
2017-09-10T08:04:22.589Z,30.5
2017-09-10T08:05:22.735Z,31.5
2017-09-10T08:06:22.829Z,32.3
2017-09-10T08:07:22.850Z,33
2017-09-10T08:08:22.900Z,33.5
2017-09-10T08:09:22.926Z,34
2017-09-10T08:10:22.987Z,34.5
2017-09-10T08:11:23.023Z,34.9
2017-09-10T08:12:23.148Z,35.2
2017-09-10T08:13:23.224Z,35.7
2017-09-10T08:14:23.222Z,35.9
2017-09-10T08:15:23.324Z,36.3
2017-09-10T08:16:23.377Z,36.7
2017-09-10T08:17:23.428Z,36.9
2017-09-10T08:18:23.512Z,37.2
2017-09-10T08:19:23.551Z,37
2017-09-10T08:21:23.702Z,37.3
2017-09-10T08:22:23.692Z,37.4
2017-09-10T08:23:23.828Z,37.5
2017-09-10T08:24:23.823Z,37.7
2017-09-10T08:25:23.890Z,37.8
2017-09-10T08:26:23.951Z,37.9
2017-09-10T08:27:24.023Z,38
2017-09-10T08:28:24.075Z,38.3
2017-09-10T08:29:24.132Z,38.4
2017-09-10T08:30:24.192Z,38.5
2017-09-10T08:31:24.255Z,38.7
2017-09-10T08:32:24.373Z,38.8
2017-09-10T08:33:24.397Z,38.9
2017-09-10T08:34:24.493Z,39
2017-09-10T08:35:24.567Z,38.8
2017-09-10T08:37:24.689Z,38.9
2017-09-10T08:38:24.761Z,39
2017-09-10T08:39:24.740Z,39.3
2017-09-10T08:40:24.876Z,39.4
2017-09-10T08:41:24.928Z,39.5
2017-09-10T08:42:24.990Z,39.8
2017-09-10T08:43:25.015Z,39.9
2017-09-10T08:44:25.093Z,40.2
2017-09-10T08:45:25.255Z,40.3
2017-09-10T08:46:25.266Z,40.4
2017-09-10T08:47:25.317Z,40.7
2017-09-10T08:48:25.465Z,40.8
2017-09-10T08:49:25.469Z,41.2
2017-09-10T08:50:25.559Z,41.5
2017-09-10T08:51:25.592Z,41.9
2017-09-10T08:52:25.623Z,42.3
2017-09-10T08:53:25.697Z,42.7
2017-09-10T08:54:25.751Z,42.9
2017-09-10T08:55:25.850Z,43.3
2017-09-10T08:56:25.977Z,42.8
2017-09-10T08:57:25.932Z,42.9
2017-09-10T08:58:25.971Z,41.5
2017-09-10T08:59:26.100Z,39.9
2017-09-10T09:00:26.098Z,40.8
2017-09-10T09:01:26.228Z,40.9
2017-09-10T09:02:26.242Z,41
2017-09-10T09:03:26.364Z,39.5
2017-09-10T09:04:26.382Z,38.8
2017-09-10T09:05:26.444Z,37.4
2017-09-10T09:06:26.473Z,35.9
2017-09-10T09:07:26.602Z,34.7
2017-09-10T09:08:26.648Z,33.5
2017-09-10T09:09:26.733Z,32.7
2017-09-10T09:10:26.813Z,32.3
2017-09-10T09:11:26.783Z,31.6
2017-09-10T09:12:26.914Z,31
2017-09-10T09:13:26.982Z,30.4
2017-09-10T09:14:26.957Z,29.9
2017-09-10T09:15:27.145Z,30.1
2017-09-10T09:16:27.169Z,32
2017-09-10T09:17:27.907Z,34.2
2017-09-10T09:18:27.844Z,35.7
2017-09-10T09:19:27.893Z,36.9
2017-09-10T09:20:28.012Z,37.9
2017-09-10T09:21:28.038Z,38.8
2017-09-10T09:22:28.118Z,39.5
2017-09-10T09:23:28.201Z,40.3
2017-09-10T09:24:28.251Z,40.9
2017-09-10T09:25:28.289Z,41.4
2017-09-10T09:26:28.381Z,41.9
2017-09-10T09:27:28.422Z,42.3
2017-09-10T09:28:28.520Z,41.7
2017-09-10T09:29:28.518Z,39.8
2017-09-10T09:30:28.562Z,38.8
2017-09-10T09:31:28.719Z,38.2
2017-09-10T09:32:28.721Z,39.2
2017-09-10T09:33:28.744Z,38
2017-09-10T09:34:28.815Z,37
2017-09-10T09:35:28.942Z,36.8
2017-09-10T09:36:28.970Z,37.7
2017-09-10T09:37:29.011Z,36.4
2017-09-10T09:38:29.138Z,35.5
2017-09-10T09:40:29.252Z,35.7
2017-09-10T09:41:29.291Z,35.9
2017-09-10T09:42:29.393Z,34.7
2017-09-10T09:43:29.437Z,34.3
2017-09-10T09:44:29.525Z,36.3
2017-09-10T09:45:29.577Z,37.8
2017-09-10T09:46:29.615Z,38.9
2017-09-10T09:47:29.672Z,39.5
2017-09-10T09:48:29.729Z,37.7
2017-09-10T09:49:29.855Z,36
2017-09-10T09:50:29.845Z,34.7
2017-09-10T09:51:29.975Z,33.5
2017-09-10T09:52:30.059Z,33.4
2017-09-10T09:53:30.082Z,35.7
2017-09-10T09:54:30.092Z,36.9
2017-09-10T09:55:30.246Z,35.5
2017-09-10T09:56:30.218Z,35.2
2017-09-10T09:57:30.278Z,35.5
2017-09-10T09:58:30.448Z,35
2017-09-10T09:59:30.466Z,36.9
2017-09-10T10:00:30.552Z,38
2017-09-10T10:01:30.566Z,36.4
2017-09-10T10:03:30.684Z,35.2
2017-09-10T10:04:30.773Z,36.5
2017-09-10T10:05:30.816Z,36.4
2017-09-10T10:06:30.883Z,35.7
2017-09-10T10:07:30.944Z,37.2
2017-09-10T10:08:31.008Z,37
2017-09-10T10:09:31.031Z,38.3
2017-09-10T10:10:31.168Z,39.3
2017-09-10T10:11:31.195Z,40.3
2017-09-10T10:12:31.290Z,41
2017-09-10T10:13:31.296Z,41.8
2017-09-10T10:14:31.387Z,42.5
2017-09-10T10:15:31.406Z,43.2
2017-09-10T10:16:31.522Z,43.5
2017-09-10T10:17:31.554Z,43.9
2017-09-10T10:18:31.670Z,44.2
2017-09-10T10:19:31.744Z,44.3
2017-09-10T10:20:31.730Z,44.4
2017-09-10T10:21:31.811Z,44.5
2017-09-10T10:22:31.892Z,44.7
2017-09-10T10:23:32.002Z,44.8
2017-09-10T10:24:32.047Z,44.7
2017-09-10T10:27:32.181Z,44.5
2017-09-10T10:31:32.472Z,44.7
2017-09-10T10:34:32.687Z,44.4
2017-09-10T10:35:32.697Z,44.5
2017-09-10T10:38:32.915Z,44.7
2017-09-10T10:39:32.917Z,43.7
2017-09-10T10:40:32.977Z,42
2017-09-10T10:41:33.040Z,42.8
2017-09-10T10:42:33.169Z,43.2
2017-09-10T10:43:33.234Z,43.4
2017-09-10T10:44:33.212Z,43.7
2017-09-10T10:45:33.311Z,43.9
2017-09-10T10:46:33.399Z,44.2
2017-09-10T10:48:33.510Z,44.4
2017-09-10T10:49:33.589Z,44.5
2017-09-10T10:50:33.625Z,44.7
2017-09-10T10:51:33.721Z,44.8
2017-09-10T10:53:33.844Z,44.9
2017-09-10T10:54:33.879Z,45.2
2017-09-10T10:55:33.937Z,44.9
2017-09-10T10:56:34.025Z,45.2
2017-09-10T10:57:34.056Z,43.9
2017-09-10T10:59:34.222Z,44
2017-09-10T11:00:34.271Z,44.3
2017-09-10T11:01:34.304Z,44.5
2017-09-10T11:02:34.416Z,43.8
2017-09-10T11:03:34.467Z,43.4
2017-09-10T11:04:34.517Z,41.5
2017-09-10T11:05:34.526Z,40.5
2017-09-10T11:06:34.606Z,40.2
2017-09-10T11:07:34.649Z,38.7
2017-09-10T11:08:34.740Z,40
2017-09-10T11:09:34.768Z,41.2
2017-09-10T11:10:34.896Z,41.8
2017-09-10T11:11:34.914Z,40.9
2017-09-10T11:12:35.024Z,41.4
2017-09-10T11:13:35.063Z,41.5
2017-09-10T11:14:35.074Z,42.5
2017-09-10T11:15:35.187Z,42.7
2017-09-10T11:16:35.266Z,40.3
2017-09-10T11:17:35.285Z,38.8
2017-09-10T11:18:35.386Z,39.4
2017-09-10T11:19:35.467Z,40.9
2017-09-10T11:20:35.493Z,42
2017-09-10T11:21:35.565Z,42.7
2017-09-10T11:22:35.572Z,42
2017-09-10T11:23:35.627Z,39.5
2017-09-10T11:24:35.794Z,37.7
2017-09-10T11:25:35.807Z,38.7
2017-09-10T11:26:35.808Z,40
2017-09-10T11:27:35.881Z,41
2017-09-10T11:28:35.943Z,41.9
2017-09-10T11:29:36.039Z,42
2017-09-10T11:30:36.126Z,39.5
2017-09-10T11:31:36.121Z,37.9
2017-09-10T11:32:36.201Z,37.3
2017-09-10T11:33:36.266Z,38.4
2017-09-10T11:34:36.321Z,39.5
2017-09-10T11:35:36.458Z,37.4
2017-09-10T11:36:36.532Z,35.8
2017-09-10T11:37:36.587Z,34.7
2017-09-10T11:38:36.639Z,33.8
2017-09-10T11:39:36.726Z,35.2
2017-09-10T11:40:36.791Z,35.5
2017-09-10T11:41:36.816Z,35.3
2017-09-10T11:42:36.863Z,34
2017-09-10T11:43:36.910Z,32.8
2017-09-10T11:44:36.971Z,31.6
2017-09-10T11:45:37.070Z,30.6
2017-09-10T11:46:37.168Z,29.9
2017-09-10T11:47:37.201Z,29.3
2017-09-10T11:48:37.284Z,28.9
2017-09-10T11:49:37.360Z,29.3
2017-09-10T11:50:37.404Z,29.4
2017-09-10T11:51:37.500Z,30.8
2017-09-10T11:52:37.546Z,31.6
2017-09-10T11:53:37.572Z,32.5
2017-09-10T11:54:37.646Z,32.3
2017-09-10T11:55:37.732Z,31.8
2017-09-10T11:56:37.764Z,32.7
2017-09-10T11:57:37.793Z,34.4
2017-09-10T11:58:37.893Z,35.9
2017-09-10T11:59:37.912Z,35.4
2017-09-10T12:00:38.034Z,33.9
2017-09-10T12:01:38.105Z,34.7
2017-09-10T12:02:38.164Z,36.3
2017-09-10T12:03:38.197Z,37.3
2017-09-10T12:04:38.280Z,35.3
2017-09-10T12:05:38.342Z,35.2
2017-09-10T12:06:38.345Z,36.8
2017-09-10T12:07:38.478Z,36.5
2017-09-10T12:08:38.586Z,37.9
2017-09-10T12:09:38.577Z,39
2017-09-10T12:10:38.605Z,40
2017-09-10T12:11:38.643Z,39.9
2017-09-10T12:12:38.748Z,40.2
2017-09-10T12:14:38.863Z,38.4
2017-09-10T12:15:39.046Z,38.9
2017-09-10T12:16:39.063Z,39.2
2017-09-10T12:17:39.016Z,40.3
2017-09-10T12:18:39.091Z,41.2
2017-09-10T12:19:39.226Z,41.9
2017-09-10T12:20:39.282Z,42.5
2017-09-10T12:21:39.285Z,43.2
2017-09-10T12:22:39.352Z,41.9
2017-09-10T12:23:39.447Z,41.4
2017-09-10T12:24:39.529Z,42.3
2017-09-10T12:25:39.553Z,43
2017-09-10T12:26:39.610Z,43.4
2017-09-10T12:27:39.673Z,42.9
2017-09-10T12:28:39.734Z,42.2
2017-09-10T12:29:39.885Z,40.9
2017-09-10T12:30:39.927Z,42
2017-09-10T12:31:39.980Z,40.9
2017-09-10T12:32:40.059Z,41.9
2017-09-10T12:33:40.161Z,42
2017-09-10T12:34:40.189Z,42.9
2017-09-10T12:35:40.256Z,43.7
2017-09-10T12:36:40.288Z,44.2
2017-09-10T12:37:40.366Z,44.5
2017-09-10T12:38:40.415Z,45
2017-09-10T12:39:40.593Z,45.3
2017-09-10T12:40:40.629Z,45.5
2017-09-10T12:41:40.776Z,45.7
2017-09-10T12:42:40.772Z,44
2017-09-10T12:43:40.801Z,44.3
2017-09-10T12:44:40.842Z,44.5
2017-09-10T12:45:40.920Z,44.2
2017-09-10T12:46:41.002Z,43.9
2017-09-10T12:47:41.040Z,43.5
2017-09-10T12:48:41.119Z,41.5
2017-09-10T12:49:41.133Z,40.8
2017-09-10T12:50:41.227Z,42
2017-09-10T12:51:41.223Z,42.9
2017-09-10T12:52:41.354Z,43.4
2017-09-10T12:53:41.424Z,44
2017-09-10T12:54:41.473Z,44.5
2017-09-10T12:55:41.507Z,44.8
2017-09-10T12:56:41.527Z,45
2017-09-10T12:57:41.671Z,45.2
2017-09-10T12:58:41.660Z,45.3
2017-09-10T13:02:41.917Z,45.2
2017-09-10T13:03:41.951Z,45
2017-09-10T13:05:42.124Z,44.9
2017-09-10T13:07:42.283Z,44.8
2017-09-10T13:08:42.334Z,44.4
2017-09-10T13:09:42.376Z,44.3
2017-09-10T13:10:42.390Z,43.5
2017-09-10T13:11:42.494Z,43.3
2017-09-10T13:12:42.594Z,43.7
2017-09-10T13:13:42.662Z,43.9
2017-09-10T13:14:42.716Z,44.2
2017-09-10T13:15:42.743Z,44.4
2017-09-10T13:16:42.838Z,44.5
2017-09-10T13:17:42.882Z,44.7
2017-09-10T13:24:43.306Z,44.5
2017-09-10T13:25:43.350Z,44.4
2017-09-10T13:27:43.504Z,44.3
2017-09-10T13:29:43.604Z,44.2
2017-09-10T13:30:43.686Z,43.9
2017-09-10T13:31:43.723Z,41
2017-09-10T13:32:43.749Z,38.8
2017-09-10T13:33:43.810Z,38.2
2017-09-10T13:34:43.873Z,39.3
2017-09-10T13:35:43.979Z,40
2017-09-10T13:36:44.068Z,40.5
2017-09-10T13:37:44.157Z,40.2
2017-09-10T13:38:44.219Z,39.5
2017-09-10T13:39:44.257Z,40.2
2017-09-10T13:40:44.344Z,40.7
2017-09-10T13:41:44.380Z,41
2017-09-10T13:42:44.461Z,41.4
2017-09-10T13:43:44.505Z,41.7
2017-09-10T13:44:44.569Z,41.9
2017-09-10T13:45:44.638Z,42
2017-09-10T13:46:44.711Z,42.2
2017-09-10T13:47:44.723Z,42.3
2017-09-10T13:48:44.901Z,42.4
2017-09-10T13:50:44.900Z,42.5
2017-09-10T13:55:45.221Z,41.9
2017-09-10T13:56:45.320Z,41
2017-09-10T13:57:45.424Z,41.4
2017-09-10T13:58:45.445Z,41.7
2017-09-10T13:59:45.526Z,41.8
2017-09-10T14:00:45.568Z,41.9
2017-09-10T14:01:45.619Z,42
2017-09-10T14:02:45.699Z,42.2
2017-09-10T14:03:45.832Z,42.3
2017-09-10T14:04:45.874Z,42.2
2017-09-10T14:05:45.939Z,41.8
2017-09-10T14:06:46.001Z,41.5
2017-09-10T14:07:46.059Z,40.9
2017-09-10T14:08:46.299Z,40.7
2017-09-10T14:09:46.162Z,39.5
2017-09-10T14:10:46.265Z,40
2017-09-10T14:11:46.346Z,40.4
2017-09-10T14:12:46.403Z,40.7
2017-09-10T14:13:46.433Z,40.8
2017-09-10T14:17:46.722Z,40.7
2017-09-10T14:20:46.839Z,40.5
2017-09-10T14:22:47.064Z,40.2
2017-09-10T14:23:47.105Z,39.8
2017-09-10T14:24:47.187Z,39.7
2017-09-10T14:33:47.771Z,39.5
2017-09-10T14:35:47.825Z,39.4
2017-09-10T14:39:48.040Z,39.3
2017-09-10T14:42:48.298Z,39.2
2017-09-10T14:44:48.345Z,39
2017-09-10T14:46:48.532Z,38.9
2017-09-10T14:50:48.806Z,38.8
2017-09-10T14:52:48.925Z,38.7
2017-09-10T14:56:49.120Z,38.4
2017-09-10T14:58:49.245Z,38.3
2017-09-10T14:59:49.346Z,38.2
2017-09-10T15:01:49.529Z,38
2017-09-10T15:03:49.565Z,37.9
2017-09-10T15:04:49.626Z,37.8
2017-09-10T15:05:49.688Z,37.7
2017-09-10T15:07:49.806Z,37.5
2017-09-10T15:08:49.853Z,37.4
2017-09-10T15:09:49.970Z,37.3
2017-09-10T15:10:50.074Z,37.2
2017-09-10T15:12:50.147Z,37
2017-09-10T15:13:50.238Z,36.9
2017-09-10T15:15:50.330Z,36.8
2017-09-10T15:18:50.791Z,36.9
2017-09-10T15:24:50.930Z,36.8
2017-09-10T15:26:50.997Z,36.7
2017-09-10T15:27:51.002Z,36.5
2017-09-10T15:29:51.136Z,36.4
2017-09-10T15:33:51.427Z,36.3
2017-09-10T15:34:51.439Z,36.2
2017-09-10T15:35:51.558Z,36
2017-09-10T15:38:51.748Z,35.9
2017-09-10T15:40:51.822Z,35.7
2017-09-10T15:41:51.946Z,35.5
2017-09-10T15:42:52.019Z,35.4
2017-09-10T15:43:52.126Z,35.3
2017-09-10T15:44:52.135Z,35.2
2017-09-10T15:46:52.244Z,35
2017-09-10T15:47:52.391Z,34.9
2017-09-10T15:49:52.430Z,34.7
2017-09-10T15:50:52.476Z,34.2
2017-09-10T15:51:52.515Z,34.3
2017-09-10T15:52:52.563Z,34
2017-09-10T15:53:52.637Z,33.4
2017-09-10T15:54:52.691Z,32.8
2017-09-10T15:55:52.735Z,32
2017-09-10T15:56:52.825Z,31
2017-09-10T15:57:52.927Z,29.9
2017-09-10T15:58:52.966Z,28.9
2017-09-10T15:59:53.024Z,28
2017-09-10T16:00:53.053Z,27.1
2017-09-10T16:01:53.182Z,26.3
2017-09-10T16:02:53.238Z,25.5
2017-09-10T16:03:53.239Z,24.9
2017-09-10T16:04:53.327Z,24.3
2017-09-10T16:05:53.427Z,23.8
2017-09-10T16:06:53.494Z,23.4
2017-09-10T16:07:53.565Z,23
2017-09-10T16:08:53.652Z,22.6
2017-09-10T16:09:53.590Z,22.3
2017-09-10T16:10:53.716Z,22
2017-09-10T16:11:53.717Z,21.9
2017-09-10T16:12:53.827Z,21.8
2017-09-10T16:13:53.911Z,21.5
2017-09-10T16:14:53.916Z,21.3
2017-09-10T16:15:54.037Z,21
2017-09-10T16:16:54.027Z,20.9
2017-09-10T16:17:54.088Z,20.8
2017-09-10T16:18:54.226Z,20.5
2017-09-10T16:19:54.223Z,20.4
2017-09-10T16:20:54.414Z,20.3
2017-09-10T16:22:54.472Z,20.1
2017-09-10T16:23:54.562Z,20
2017-09-10T16:24:54.592Z,19.9
2017-09-10T16:25:54.658Z,19.8
2017-09-10T16:26:54.678Z,19.6
2017-09-10T16:27:54.742Z,19.5
2017-09-10T16:29:54.866Z,19.4
2017-09-10T16:30:54.925Z,19.3
2017-09-10T16:32:55.058Z,19.1
2017-09-10T16:34:55.225Z,19
2017-09-10T16:35:55.206Z,18.9
2017-09-10T16:48:00.095Z,18.1
2017-09-10T16:49:00.983Z,18
2017-09-10T16:52:03.736Z,17.9
2017-09-10T16:54:05.517Z,17.8
2017-09-10T16:56:07.355Z,17.6
2017-09-10T16:58:09.099Z,17.5
2017-09-10T17:00:10.930Z,17.4
2017-09-10T17:02:12.790Z,17.3
2017-09-10T17:04:14.644Z,17.1
2017-09-10T17:06:16.422Z,17
2017-09-10T17:08:18.181Z,16.9
2017-09-10T17:09:19.153Z,16.8
2017-09-10T17:11:20.924Z,16.6
2017-09-10T17:13:22.803Z,16.5
2017-09-10T17:15:24.584Z,16.4
2017-09-10T17:16:25.520Z,16.3
2017-09-10T17:17:26.431Z,16.1
2017-09-10T17:19:28.193Z,16
2017-09-10T17:20:29.125Z,15.9
2017-09-10T17:22:30.958Z,15.8
2017-09-10T17:23:31.829Z,15.6
2017-09-10T17:25:33.681Z,15.5
2017-09-10T17:26:34.547Z,15.4
2017-09-10T17:28:36.349Z,15.1
2017-09-10T17:30:38.217Z,15
2017-09-10T17:58:54.054Z,13
2017-09-10T18:00:53.139Z,12.9
2017-09-10T18:03:55.327Z,12.8
2017-09-10T18:06:58.048Z,12.6
2017-09-10T18:10:00.779Z,12.5
2017-09-10T18:13:03.491Z,12.4
2017-09-10T18:15:05.333Z,12.3
2017-09-10T18:18:08.128Z,12.1
2017-09-10T18:22:11.756Z,12
2017-09-10T18:25:14.484Z,11.9
2017-09-10T18:32:20.705Z,11.8
2017-09-10T18:38:26.179Z,11.9
2017-09-10T19:05:39.979Z,12.1
2017-09-10T19:08:42.723Z,12
2017-09-10T19:12:46.385Z,11.9
2017-09-10T19:18:51.805Z,11.5
2017-09-10T19:20:53.576Z,11.4
2017-09-10T19:23:56.238Z,11.3
2017-09-10T19:25:58.073Z,11.1
2017-09-10T20:31:56.886Z,9.8
2017-09-10T20:34:59.622Z,9.8
2017-09-10T20:36:00.797Z,9.8
2017-09-10T20:38:02.320Z,9.6
2017-09-10T20:41:05.054Z,9.6
2017-09-10T20:42:05.973Z,9.5
2017-09-10T20:43:06.896Z,9.6
2017-09-10T20:44:07.740Z,9.5
2017-09-10T20:45:08.675Z,9.5
2017-09-10T20:49:12.343Z,9.4
2017-09-10T20:50:13.153Z,9.5
2017-09-10T20:51:14.102Z,9.4
2017-09-10T20:55:17.680Z,9.4
2017-09-10T21:01:23.091Z,9.3
2017-09-10T21:07:28.420Z,9.1
2017-09-10T21:10:31.116Z,9
2017-09-10T21:14:34.657Z,8.9
2017-09-10T21:20:40.190Z,8.8
2017-09-10T21:25:44.630Z,8.6
2017-09-10T21:30:49.232Z,8.5
2017-09-10T21:39:57.305Z,8.4
2017-09-10T21:51:07.253Z,8.5
2017-09-10T21:53:09.009Z,8.6
2017-09-10T21:54:09.966Z,8.9
2017-09-10T21:55:10.815Z,9
2017-09-10T21:56:11.724Z,9.1
2017-09-10T21:57:12.681Z,9.3
2017-09-10T21:58:13.558Z,9.4
2017-09-10T21:59:14.473Z,9.5
2017-09-10T22:00:15.375Z,9.8
2017-09-10T22:01:16.275Z,9.9
2017-09-10T22:02:17.192Z,10
2017-09-10T22:03:18.051Z,10.1
2017-09-10T22:04:18.999Z,10.3
2017-09-10T22:05:19.861Z,10.4
2017-09-10T22:06:20.768Z,10.5
2017-09-10T22:07:21.660Z,10.6
2017-09-10T22:09:23.527Z,10.8
2017-09-10T22:10:24.407Z,10.9
2017-09-10T22:11:25.324Z,11
2017-09-10T22:14:28.052Z,11.1
2017-09-10T22:17:30.786Z,11.3
2017-09-10T22:19:32.536Z,11.4
2017-09-10T22:21:34.346Z,11.5
2017-09-10T22:23:36.180Z,11.6
2017-09-10T22:26:38.819Z,11.8
2017-09-10T22:28:40.656Z,11.9
2017-09-10T22:31:43.386Z,12
2017-09-10T22:32:44.312Z,12.1
2017-09-10T22:37:48.852Z,12.3
2017-09-10T22:46:56.900Z,12.1
2017-09-10T22:47:57.924Z,12.3
2017-09-10T22:48:58.771Z,12.1
2017-09-10T22:51:00.570Z,12.3
2017-09-10T22:52:01.455Z,12.1
2017-09-10T22:58:05.990Z,12
2017-09-10T23:04:11.459Z,11.9
2017-09-10T23:05:12.341Z,12
2017-09-10T23:07:14.199Z,11.9
2017-09-10T23:13:19.688Z,11.8
2017-09-10T23:14:20.545Z,11.9
2017-09-10T23:18:24.126Z,12
2017-09-10T23:24:29.549Z,12.1
2017-09-10T23:25:30.520Z,12
2017-09-10T23:26:31.389Z,12.1
2017-09-10T23:32:36.803Z,12.3
2017-09-10T23:43:46.708Z,12.1
2017-09-10T23:44:47.673Z,12.3
2017-09-10T23:45:48.558Z,12.1
2017-09-10T23:55:57.699Z,12.3
